Time;durP1;ratioP1;P1;durP2;ratioP2;P2;SDS_P1;SDS_P2;PMS_P1;PMS_P2;Temp;Humidity;BMP_temperature;BMP_pressure;BME280_temperature;BME280_humidity;BME280_pressure;Samples;Min_cycle;Max_cycle;Signal;HPM_P1;HPM_P2
2023/12/04 00:01:40;;;;;;;;;;;;;;;;;;136984;1272;22976;-81
2023/12/04 00:04:41;;;;;;;;;;;;;;;;;;137223;1272;25262;-81
2023/12/04 00:07:42;;;;;;;;;;;;;;;;;;137386;1272;22548;-81
2023/12/04 00:10:43;;;;;;;;;;;;;;;;;;136932;1272;22523;-81
2023/12/04 00:13:44;;;;;;;;;;;;;;;;;;136985;1272;22541;-82
2023/12/04 00:16:45;;;;;;;;;;;;;;;;;;137681;1272;22344;-82
2023/12/04 00:19:46;;;;;;;;;;;;;;;;;;136928;1272;22509;-82
2023/12/04 00:22:48;;;;;;;;;;;;;;;;;;136905;1272;22494;-82
2023/12/04 00:25:49;;;;;;;;;;;;;;;;;;137597;1272;22488;-82
2023/12/04 00:28:50;;;;;;;;;;;;;;;;;;137066;1272;22902;-82
2023/12/04 00:31:51;;;;;;;;;;;;;;;;;;136896;1272;22542;-82
2023/12/04 00:34:53;;;;;;;;;;;;;;;;;;137239;1272;25382;-82
2023/12/04 00:37:56;;;;;;;;;;;;;;;;;;137205;1272;22554;-82
2023/12/04 00:40:57;;;;;;;;;;;;;;;;;;136907;1272;22505;-82
2023/12/04 00:43:58;;;;;;;;;;;;;;;;;;137182;1272;22506;-83
2023/12/04 00:46:59;;;;;;;;;;;;;;;;;;137469;1272;24226;-82
2023/12/04 00:50:00;;;;;;;;;;;;;;;;;;136957;1272;23039;-83
2023/12/04 00:53:01;;;;;;;;;;;;;;;;;;136968;1272;24203;-82
2023/12/04 00:56:03;;;;;;;;;;;;;;;;;;137546;1272;22568;-82
2023/12/04 00:59:06;;;;;;;;;;;;;;;;;;136990;1272;22518;-80
2023/12/04 01:02:07;;;;;;;;;;;;;;;;;;136931;1272;22513;-81
2023/12/04 01:05:08;;;;;;;;;;;;;;;;;;137457;1272;22517;-83
2023/12/04 01:08:09;;;;;;;;;;;;;;;;;;137113;1272;22581;-82
2023/12/04 01:11:10;;;;;;;;;;;;;;;;;;137168;1272;22523;-82
2023/12/04 01:14:12;;;;;;;;;;;;;;;;;;137531;1272;22528;-82
2023/12/04 01:17:13;;;;;;;;;;;;;;;;;;137344;1272;22511;-83
2023/12/04 01:20:15;;;;;;;;;;;;;;;;;;137278;1272;22547;-83
2023/12/04 01:23:16;;;;;;;;;;;;;;;;;;137251;1272;24191;-83
2023/12/04 01:26:17;;;;;;;;;;;;;;;;;;137650;1272;22513;-83
2023/12/04 01:29:18;;;;;;;;;;;;;;;;;;137107;1272;22496;-82
2023/12/04 01:32:19;;;;;;;;;;;;;;;;;;136932;1272;22590;-82
2023/12/04 01:35:20;;;;;;;;;;;;;;;;;;137556;1272;22531;-82
2023/12/04 01:38:24;;;;;;;;;;;;;;;;;;136974;1272;24395;-81
2023/12/04 01:41:25;;;;;;;;;;;;;;;;;;137226;1272;22508;-81
2023/12/04 01:44:26;;;;;;;;;;;;;;;;;;137172;1272;22518;-81
2023/12/04 01:47:27;;;;;;;;;;;;;;;;;;137214;1268;22555;-82
2023/12/04 01:50:28;;;;;;;;;;;;;;;;;;137022;1272;22538;-82
2023/12/04 01:53:30;;;;;;;;;;;;;;;;;;137117;1272;22514;-82
2023/12/04 01:56:31;;;;;;;;;;;;;;;;;;137317;1272;22552;-82
2023/12/04 01:59:32;;;;;;;;;;;;;;;;;;136996;1272;22518;-81
2023/12/04 02:02:33;;;;;;;;;;;;;;;;;;137006;1272;22511;-83
2023/12/04 02:05:34;;;;;;;;;;;;;;;;;;137500;1272;22652;-80
2023/12/04 02:08:36;;;;;;;;;;;;;;;;;;137052;1272;22659;-82
2023/12/04 02:11:37;;;;;;;;;;;;;;;;;;137003;1272;22649;-82
2023/12/04 02:14:38;;;;;;;;;;;;;;;;;;137491;1272;22886;-82
2023/12/04 02:17:39;;;;;;;;;;;;;;;;;;137027;1272;22926;-81
2023/12/04 02:20:40;;;;;;;;;;;;;;;;;;136922;1272;22562;-82
2023/12/04 02:23:41;;;;;;;;;;;;;;;;;;137489;1272;22588;-82
2023/12/04 02:26:42;;;;;;;;;;;;;;;;;;137130;1272;22894;-82
2023/12/04 02:29:43;;;;;;;;;;;;;;;;;;136953;1272;23193;-82
2023/12/04 02:32:44;;;;;;;;;;;;;;;;;;137258;1272;22425;-83
2023/12/04 02:35:45;;;;;;;;;;;;;;;;;;137216;1272;22985;-83
2023/12/04 02:38:46;;;;;;;;;;;;;;;;;;136791;1272;22554;-82
2023/12/04 02:41:47;;;;;;;;;;;;;;;;;;137157;1272;24144;-82
2023/12/04 02:44:49;;;;;;;;;;;;;;;;;;137517;1272;22509;-83
2023/12/04 02:47:51;;;;;;;;;;;;;;;;;;136956;1268;23091;-82
2023/12/04 02:50:52;;;;;;;;;;;;;;;;;;136938;1272;22582;-80
2023/12/04 02:53:53;;;;;;;;;;;;;;;;;;137673;1272;22496;-80
2023/12/04 02:56:54;;;;;;;;;;;;;;;;;;137028;1272;22495;-82
2023/12/04 02:59:55;;;;;;;;;;;;;;;;;;137009;1272;22502;-83
2023/12/04 03:02:56;;;;;;;;;;;;;;;;;;137421;1272;22548;-83
2023/12/04 03:05:57;;;;;;;;;;;;;;;;;;137230;1272;22492;-82
2023/12/04 03:08:59;;;;;;;;;;;;;;;;;;137008;1272;22570;-82
2023/12/04 03:12:00;;;;;;;;;;;;;;;;;;137173;1272;22538;-82
2023/12/04 03:15:01;;;;;;;;;;;;;;;;;;137332;1272;22934;-82
2023/12/04 03:18:03;;;;;;;;;;;;;;;;;;137036;1272;22884;-82
2023/12/04 03:21:04;;;;;;;;;;;;;;;;;;137047;1272;22628;-82
2023/12/04 03:24:05;;;;;;;;;;;;;;;;;;137585;1272;22510;-83
2023/12/04 03:27:06;;;;;;;;;;;;;;;;;;137027;1265;22872;-82
2023/12/04 03:30:07;;;;;;;;;;;;;;;;;;137102;1269;22602;-81
2023/12/04 03:33:08;;;;;;;;;;;;;;;;;;137641;1272;25912;-82
2023/12/04 03:36:09;;;;;;;;;;;;;;;;;;137125;1272;22670;-81
2023/12/04 03:39:10;;;;;;;;;;;;;;;;;;137056;1272;22519;-81
2023/12/04 03:42:11;;;;;;;;;;;;;;;;;;137418;1272;24499;-83
2023/12/04 03:45:12;;;;;;;;;;;;;;;;;;137280;1272;22517;-81
2023/12/04 03:48:14;;;;;;;;;;;;;;;;;;136960;1272;22502;-82
2023/12/04 03:51:15;;;;;;;;;;;;;;;;;;137050;1272;22517;-82
2023/12/04 03:54:16;;;;;;;;;;;;;;;;;;137480;1272;22568;-81
2023/12/04 03:57:17;;;;;;;;;;;;;;;;;;137044;1272;22678;-81
2023/12/04 04:00:18;;;;;;;;;;;;;;;;;;137518;1272;22569;-81
2023/12/04 04:03:21;;;;;;;;;;;;;;;;;;137325;1272;22517;-81
2023/12/04 04:06:22;;;;;;;;;;;;;;;;;;137217;1272;22517;-81
2023/12/04 04:09:24;;;;;;;;;;;;;;;;;;137440;1272;22529;-81
2023/12/04 04:12:25;;;;;;;;;;;;;;;;;;137379;1272;22484;-81
2023/12/04 04:15:26;;;;;;;;;;;;;;;;;;137265;1272;22513;-81
2023/12/04 04:18:27;;;;;;;;;;;;;;;;;;137019;1272;22527;-81
2023/12/04 04:21:28;;;;;;;;;;;;;;;;;;137196;1272;22615;-82
2023/12/04 04:24:29;;;;;;;;;;;;;;;;;;137548;1272;22523;-82
2023/12/04 04:27:30;;;;;;;;;;;;;;;;;;137000;1272;22533;-81
2023/12/04 04:30:31;;;;;;;;;;;;;;;;;;137147;1272;25369;-80
2023/12/04 04:33:32;;;;;;;;;;;;;;;;;;137648;1272;22324;-82
2023/12/04 04:36:35;;;;;;;;;;;;;;;;;;137424;1260;22497;-82
2023/12/04 04:39:36;;;;;;;;;;;;;;;;;;137671;1272;22695;-82
2023/12/04 04:42:37;;;;;;;;;;;;;;;;;;137558;1264;22338;-82
2023/12/04 04:45:38;;;;;;;;;;;;;;;;;;136870;1272;134572;-82
2023/12/04 04:48:40;;;;;;;;;;;;;;;;;;137004;1272;23288;-81
2023/12/04 04:51:41;;;;;;;;;;;;;;;;;;137531;1272;22505;-80
2023/12/04 04:54:42;;;;;;;;;;;;;;;;;;137415;1272;22518;-80
2023/12/04 04:57:43;;;;;;;;;;;;;;;;;;137242;1272;22907;-81
2023/12/04 05:00:44;;;;;;;;;;;;;;;;;;137648;1272;22729;-81
2023/12/04 05:03:45;;;;;;;;;;;;;;;;;;137522;1272;22954;-80
2023/12/04 05:06:46;;;;;;;;;;;;;;;;;;137648;1272;22396;-80
2023/12/04 05:09:47;;;;;;;;;;;;;;;;;;137649;1272;22405;-81
2023/12/04 05:12:48;;;;;;;;;;;;;;;;;;137629;1272;22385;-82
2023/12/04 05:15:50;;;;;;;;;;;;;;;;;;137626;1272;22230;-82
2023/12/04 05:18:51;;;;;;;;;;;;;;;;;;137631;1272;22289;-82
2023/12/04 05:21:52;;;;;;;;;;;;;;;;;;137611;1272;22757;-81
2023/12/04 05:24:53;;;;;;;;;;;;;;;;;;137597;1272;22708;-82
2023/12/04 05:27:54;;;;;;;;;;;;;;;;;;137634;1272;22813;-82
2023/12/04 05:30:55;;;;;;;;;;;;;;;;;;137641;1272;22271;-82
2023/12/04 05:33:56;;;;;;;;;;;;;;;;;;137537;1272;22461;-83
2023/12/04 05:36:57;;;;;;;;;;;;;;;;;;137592;1272;22531;-82
2023/12/04 05:39:58;;;;;;;;;;;;;;;;;;137595;1272;22961;-81
2023/12/04 05:42:59;;;;;;;;;;;;;;;;;;137566;1272;22314;-81
2023/12/04 05:46:00;;;;;;;;;;;;;;;;;;137596;1272;22878;-81
2023/12/04 05:49:01;;;;;;;;;;;;;;;;;;137574;1272;22384;-81
2023/12/04 05:52:03;;;;;;;;;;;;;;;;;;137615;1272;22328;-81
2023/12/04 05:55:04;;;;;;;;;;;;;;;;;;137584;1272;22295;-81
2023/12/04 05:58:05;;;;;;;;;;;;;;;;;;137606;1272;22855;-81
2023/12/04 06:01:06;;;;;;;;;;;;;;;;;;137580;1272;22279;-81
2023/12/04 06:04:07;;;;;;;;;;;;;;;;;;137664;1272;22316;-81
2023/12/04 06:07:08;;;;;;;;;;;;;;;;;;137653;1272;22333;-81
2023/12/04 06:10:09;;;;;;;;;;;;;;;;;;137482;1272;22665;-80
2023/12/04 06:13:11;;;;;;;;;;;;;;;;;;137058;1272;22506;-79
2023/12/04 06:16:12;;;;;;;;;;;;;;;;;;136523;1260;22515;-79
2023/12/04 06:19:14;;;;;;;;;;;;;;;;;;137568;1272;22478;-83
2023/12/04 06:22:16;;;;;;;;;;;;;;;;;;137589;1272;22530;-82
2023/12/04 06:25:18;;;;;;;;;;;;;;;;;;137673;1272;22304;-82
2023/12/04 06:28:19;;;;;;;;;;;;;;;;;;137685;1272;22347;-79
2023/12/04 06:31:20;;;;;;;;;;;;;;;;;;137600;1272;22341;-79
2023/12/04 06:34:21;;;;;;;;;;;;;;;;;;137636;1272;22327;-79
2023/12/04 06:37:22;;;;;;;;;;;;;;;;;;137623;1272;22692;-79
2023/12/04 06:40:23;;;;;;;;;;;;;;;;;;137557;1272;22384;-79
2023/12/04 06:43:25;;;;;;;;;;;;;;;;;;137605;1272;22308;-80
2023/12/04 06:46:26;;;;;;;;;;;;;;;;;;137579;1272;22847;-79
2023/12/04 06:49:27;;;;;;;;;;;;;;;;;;137616;1272;22334;-80
2023/12/04 06:52:29;;;;;;;;;;;;;;;;;;137623;1272;22504;-79
2023/12/04 06:55:30;;;;;;;;;;;;;;;;;;137605;1272;22297;-80
2023/12/04 06:58:31;;;;;;;;;;;;;;;;;;137612;1272;22656;-79
2023/12/04 07:01:33;;;;;;;;;;;;;;;;;;137666;1272;22419;-82
2023/12/04 07:04:34;;;;;;;;;;;;;;;;;;137599;1272;22313;-78
2023/12/04 07:07:35;;;;;;;;;;;;;;;;;;137624;1272;22390;-80
2023/12/04 07:10:36;;;;;;;;;;;;;;;;;;137606;1268;22484;-80
2023/12/04 07:13:38;;;;;;;;;;;;;;;;;;137578;1272;22302;-80
2023/12/04 07:16:39;;;;;;;;;;;;;;;;;;137646;1272;22251;-80
2023/12/04 07:19:40;;;;;;;;;;;;;;;;;;137583;1272;22368;-80
2023/12/04 07:22:41;;;;;;;;;;;;;;;;;;137573;1272;22360;-78
2023/12/04 07:25:42;;;;;;;;;;;;;;;;;;137577;1272;22286;-79
2023/12/04 07:28:43;;;;;;;;;;;;;;;;;;137574;1272;22333;-78
2023/12/04 07:31:44;;;;;;;;;;;;;;;;;;137574;1272;22328;-79
2023/12/04 07:34:45;;;;;;;;;;;;;;;;;;137565;1272;22351;-80
2023/12/04 07:37:46;;;;;;;;;;;;;;;;;;137595;1272;22331;-80
2023/12/04 07:40:47;;;;;;;;;;;;;;;;;;137544;1272;22389;-80
2023/12/04 07:43:48;;;;;;;;;;;;;;;;;;137303;1272;23323;-79
2023/12/04 07:46:49;;;;;;;;;;;;;;;;;;137582;1272;22324;-79
2023/12/04 07:49:53;;;;;;;;;;;;;;;;;;137586;1272;22543;-79
2023/12/04 07:52:54;;;;;;;;;;;;;;;;;;137609;1272;22259;-79
2023/12/04 07:55:55;;;;;;;;;;;;;;;;;;137605;1272;22253;-78
2023/12/04 07:58:56;;;;;;;;;;;;;;;;;;137612;1272;22348;-78
2023/12/04 08:01:57;;;;;;;;;;;;;;;;;;136776;1272;22491;-81
2023/12/04 08:04:58;;;;;;;;;;;;;;;;;;137639;1272;22319;-78
2023/12/04 08:08:03;;;;;;;;;;;;;;;;;;137663;1272;22340;-80
2023/12/04 08:11:04;;;;;;;;;;;;;;;;;;137455;1272;22473;-80
2023/12/04 08:14:05;;;;;;;;;;;;;;;;;;137620;1272;22470;-79
2023/12/04 08:17:06;;;;;;;;;;;;;;;;;;137611;1272;22276;-79
2023/12/04 08:20:11;;;;;;;;;;;;;;;;;;137530;1272;22507;-80
2023/12/04 08:23:15;;;;;;;;;;;;;;;;;;137622;1272;22365;-80
2023/12/04 08:26:16;;;;;;;;;;;;;;;;;;137613;1272;22316;-81
2023/12/04 08:29:17;;;;;;;;;;;;;;;;;;137618;1272;22367;-80
2023/12/04 08:32:20;;;;;;;;;;;;;;;;;;137486;1272;22541;-80
2023/12/04 08:35:21;;;;;;;;;;;;;;;;;;137425;1272;26066;-80
2023/12/04 08:38:23;;;;;;;;;;;;;;;;;;137583;1272;22504;-80
2023/12/04 08:41:24;;;;;;;;;;;;;;;;;;137579;1272;22415;-81
2023/12/04 08:44:25;;;;;;;;;;;;;;;;;;137591;1272;22942;-79
2023/12/04 08:47:26;;;;;;;;;;;;;;;;;;137556;1272;22824;-80
2023/12/04 08:50:27;;;;;;;;;;;;;;;;;;137590;1272;22361;-80
2023/12/04 08:53:28;;;;;;;;;;;;;;;;;;137574;1272;22335;-80
2023/12/04 08:56:29;;;;;;;;;;;;;;;;;;137570;1272;22360;-82
2023/12/04 08:59:31;;;;;;;;;;;;;;;;;;137566;1272;22343;-81
2023/12/04 09:02:32;;;;;;;;;;;;;;;;;;137592;1272;22469;-80
2023/12/04 09:05:33;;;;;;;;;;;;;;;;;;137553;1272;22338;-80
2023/12/04 09:08:34;;;;;;;;;;;;;;;;;;137544;1272;22415;-80
2023/12/04 09:11:35;;;;;;;;;;;;;;;;;;137595;1265;22451;-80
2023/12/04 09:14:36;;;;;;;;;;;;;;;;;;137606;1272;22284;-81
2023/12/04 09:17:39;;;;;;;;;;;;;;;;;;137623;1272;22300;-81
2023/12/04 09:20:40;;;;;;;;;;;;;;;;;;137286;1272;22504;-79
2023/12/04 09:23:41;;;;;;;;;;;;;;;;;;137606;1272;22773;-80
2023/12/04 09:26:43;;;;;;;;;;;;;;;;;;137561;1272;22352;-81
2023/12/04 09:29:44;;;;;;;;;;;;;;;;;;137580;1272;22714;-80
2023/12/04 09:32:46;;;;;;;;;;;;;;;;;;137588;1272;22870;-80
2023/12/04 09:35:47;;;;;;;;;;;;;;;;;;137571;1272;22334;-80
2023/12/04 09:38:48;;;;;;;;;;;;;;;;;;137553;1272;22332;-80
2023/12/04 09:41:49;;;;;;;;;;;;;;;;;;137599;1269;22400;-79
2023/12/04 09:44:50;;;;;;;;;;;;;;;;;;137544;1272;22343;-79
2023/12/04 09:47:51;;;;;;;;;;;;;;;;;;137531;1272;22329;-79
2023/12/04 09:50:52;;;;;;;;;;;;;;;;;;137517;1272;22353;-79
2023/12/04 09:53:55;;;;;;;;;;;;;;;;;;137545;1272;22779;-78
2023/12/04 09:56:56;;;;;;;;;;;;;;;;;;137583;1272;22377;-78
2023/12/04 09:59:57;;;;;;;;;;;;;;;;;;137563;1272;22337;-79
2023/12/04 10:02:59;;;;;;;;;;;;;;;;;;137525;1272;22369;-78
2023/12/04 10:06:00;;;;;;;;;;;;;;;;;;137556;1272;22997;-78
2023/12/04 10:09:03;;;;;;;;;;;;;;;;;;136686;1272;22495;-78
2023/12/04 10:12:04;;;;;;;;;;;;;;;;;;136738;1272;22931;-80
2023/12/04 10:15:06;;;;;;;;;;;;;;;;;;137666;1272;22283;-78
2023/12/04 10:18:07;;;;;;;;;;;;;;;;;;137304;1271;22486;-78
2023/12/04 10:21:10;;;;;;;;;;;;;;;;;;137726;1265;22337;-78
2023/12/04 10:24:11;;;;;;;;;;;;;;;;;;137680;1272;22260;-76
2023/12/04 10:27:12;;;;;;;;;;;;;;;;;;137728;1272;22434;-77
2023/12/04 10:30:14;;;;;;;;;;;;;;;;;;137662;1272;22312;-77
2023/12/04 10:33:15;;;;;;;;;;;;;;;;;;137611;1272;22334;-79
2023/12/04 10:36:17;;;;;;;;;;;;;;;;;;137554;1268;22319;-77
2023/12/04 10:39:18;;;;;;;;;;;;;;;;;;137561;1272;22796;-77
2023/12/04 10:42:20;;;;;;;;;;;;;;;;;;137578;1272;23328;-77
2023/12/04 10:45:22;;;;;;;;;;;;;;;;;;137581;1272;22330;-77
2023/12/04 10:48:23;;;;;;;;;;;;;;;;;;137572;1272;22890;-77
2023/12/04 10:51:24;;;;;;;;;;;;;;;;;;137605;1262;22284;-79
2023/12/04 10:54:25;;;;;;;;;;;;;;;;;;137529;1272;22569;-79
2023/12/04 10:57:27;;;;;;;;;;;;;;;;;;137083;1272;22591;-78
2023/12/04 11:00:28;;;;;;;;;;;;;;;;;;137579;1272;22342;-77
2023/12/04 11:03:29;;;;;;;;;;;;;;;;;;137632;1272;22338;-77
2023/12/04 11:06:30;;;;;;;;;;;;;;;;;;137562;1272;22420;-77
2023/12/04 11:09:31;;;;;;;;;;;;;;;;;;137584;1272;22401;-78
2023/12/04 11:12:32;;;;;;;;;;;;;;;;;;137601;1272;22918;-77
2023/12/04 11:15:33;;;;;;;;;;;;;;;;;;137613;1272;22344;-78
2023/12/04 11:18:35;;;;;;;;;;;;;;;;;;137618;1272;22325;-77
2023/12/04 11:21:36;;;;;;;;;;;;;;;;;;137605;1272;22340;-77
2023/12/04 11:24:37;;;;;;;;;;;;;;;;;;137603;1272;22667;-76
2023/12/04 11:27:38;;;;;;;;;;;;;;;;;;137634;1272;22773;-77
2023/12/04 11:30:39;;;;;;;;;;;;;;;;;;137632;1272;22391;-77
2023/12/04 11:33:40;;;;;;;;;;;;;;;;;;137590;1272;22810;-77
2023/12/04 11:36:41;;;;;;;;;;;;;;;;;;137615;1272;22463;-76
2023/12/04 11:39:42;;;;;;;;;;;;;;;;;;137261;1272;22522;-77
2023/12/04 11:42:43;;;;;;;;;;;;;;;;;;137610;1272;22315;-77
2023/12/04 11:45:44;;;;;;;;;;;;;;;;;;137528;1272;22321;-77
2023/12/04 11:48:46;;;;;;;;;;;;;;;;;;137559;1272;22326;-78
2023/12/04 11:51:50;;;;;;;;;;;;;;;;;;137591;1272;22270;-77
2023/12/04 11:54:51;;;;;;;;;;;;;;;;;;137608;1272;22276;-77
2023/12/04 11:57:52;;;;;;;;;;;;;;;;;;137579;1272;22730;-77
2023/12/04 12:00:55;;;;;;;;;;;;;;;;;;136702;1272;23279;-76
2023/12/04 12:03:57;;;;;;;;;;;;;;;;;;137457;1272;22519;-78
2023/12/04 12:06:58;;;;;;;;;;;;;;;;;;137026;1272;22500;-77
2023/12/04 12:09:59;;;;;;;;;;;;;;;;;;137566;1272;22431;-77
2023/12/04 12:13:01;;;;;;;;;;;;;;;;;;137582;1272;23060;-76
2023/12/04 12:16:03;;;;;;;;;;;;;;;;;;137601;1272;22748;-77
2023/12/04 12:19:04;;;;;;;;;;;;;;;;;;137580;1272;22773;-77
2023/12/04 12:22:05;;;;;;;;;;;;;;;;;;137622;1272;22332;-77
2023/12/04 12:25:07;;;;;;;;;;;;;;;;;;137591;1272;22328;-77
2023/12/04 12:28:09;;;;;;;;;;;;;;;;;;136913;1272;22500;-78
2023/12/04 12:31:10;;;;;;;;;;;;;;;;;;136803;1272;22516;-77
2023/12/04 12:34:11;;;;;;;;;;;;;;;;;;137513;1268;22477;-77
2023/12/04 12:37:12;;;;;;;;;;;;;;;;;;137725;1272;22314;-77
2023/12/04 12:40:13;;;;;;;;;;;;;;;;;;137678;1272;22443;-76
2023/12/04 12:43:14;;;;;;;;;;;;;;;;;;137589;1272;22318;-78
2023/12/04 12:46:16;;;;;;;;;;;;;;;;;;137591;1272;22333;-77
2023/12/04 12:49:20;;;;;;;;;;;;;;;;;;137593;1272;22349;-77
2023/12/04 12:52:21;;;;;;;;;;;;;;;;;;137556;1272;22390;-78
2023/12/04 12:55:22;;;;;;;;;;;;;;;;;;137562;1272;22331;-78
2023/12/04 12:58:23;;;;;;;;;;;;;;;;;;137563;1272;22290;-77
2023/12/04 13:01:25;;;;;;;;;;;;;;;;;;137576;1272;22296;-78
2023/12/04 13:04:26;;;;;;;;;;;;;;;;;;137575;1272;22367;-77
2023/12/04 13:07:27;;;;;;;;;;;;;;;;;;137545;1272;22367;-78
2023/12/04 13:10:28;;;;;;;;;;;;;;;;;;137554;1272;22388;-78
2023/12/04 13:13:29;;;;;;;;;;;;;;;;;;137550;1272;22331;-78
2023/12/04 13:16:30;;;;;;;;;;;;;;;;;;137557;1272;22430;-77
2023/12/04 13:19:32;;;;;;;;;;;;;;;;;;137544;1272;22770;-78
2023/12/04 13:22:33;;;;;;;;;;;;;;;;;;137561;1272;22277;-77
2023/12/04 13:25:35;;;;;;;;;;;;;;;;;;137527;1272;22771;-77
2023/12/04 13:28:36;;;;;;;;;;;;;;;;;;137509;1272;22397;-77
2023/12/04 13:31:37;;;;;;;;;;;;;;;;;;137532;1272;22694;-78
2023/12/04 13:34:38;;;;;;;;;;;;;;;;;;137538;1272;23105;-78
2023/12/04 13:37:39;;;;;;;;;;;;;;;;;;137139;1265;22502;-78
2023/12/04 13:40:41;;;;;;;;;;;;;;;;;;137504;1272;22375;-77
2023/12/04 13:43:51;;;;;;;;;;;;;;;;;;137547;1272;22744;-77
2023/12/04 13:46:52;;;;;;;;;;;;;;;;;;137568;1272;22898;-77
2023/12/04 13:49:55;;;;;;;;;;;;;;;;;;137602;1272;22344;-80
2023/12/04 13:52:57;;;;;;;;;;;;;;;;;;137529;1272;22270;-77
2023/12/04 13:56:19;;;;;;;;;;;;;;;;;;137532;1272;23084;-78
2023/12/04 13:59:21;;;;;;;;;;;;;;;;;;137578;1272;22334;-80
2023/12/04 14:02:22;;;;;;;;;;;;;;;;;;137566;1272;23153;-78
2023/12/04 14:05:24;;;;;;;;;;;;;;;;;;137564;1272;22339;-78
2023/12/04 14:08:25;;;;;;;;;;;;;;;;;;137586;1272;22353;-77
2023/12/04 14:11:26;;;;;;;;;;;;;;;;;;137579;1272;22396;-79
2023/12/04 14:14:27;;;;;;;;;;;;;;;;;;137542;1272;23302;-79
2023/12/04 14:17:29;;;;;;;;;;;;;;;;;;137499;1272;23171;-79
2023/12/04 14:20:30;;;;;;;;;;;;;;;;;;137496;1272;22286;-79
2023/12/04 14:23:31;;;;;;;;;;;;;;;;;;137544;1272;23465;-79
2023/12/04 14:26:32;;;;;;;;;;;;;;;;;;137541;1271;22313;-79
2023/12/04 14:29:33;;;;;;;;;;;;;;;;;;137523;1272;22922;-79
2023/12/04 14:32:34;;;;;;;;;;;;;;;;;;137534;1272;23086;-79
2023/12/04 14:35:36;;;;;;;;;;;;;;;;;;137549;1272;22875;-80
2023/12/04 14:38:38;;;;;;;;;;;;;;;;;;137568;1272;22424;-79
2023/12/04 14:41:39;;;;;;;;;;;;;;;;;;137205;1269;25191;-79
2023/12/04 14:44:40;;;;;;;;;;;;;;;;;;136987;1270;22543;-80
2023/12/04 14:47:41;;;;;;;;;;;;;;;;;;137283;1272;22882;-78
2023/12/04 14:50:42;;;;;;;;;;;;;;;;;;137658;1272;22338;-78
2023/12/04 14:53:46;;;;;;;;;;;;;;;;;;137638;1272;22303;-79
2023/12/04 15:10:59;;;;;;;;;;;;;;;;;;137240;1272;22514;-79
2023/12/04 15:14:09;;;;;;;;;;;;;;;;;;137232;1272;22504;-79
2023/12/04 15:17:18;;;;;;;;;;;;;;;;;;136816;1263;23046;-79
2023/12/04 15:20:32;;;;;;;;;;;;;;;;;;137487;1272;22522;-79
2023/12/04 15:23:33;;;;;;;;;;;;;;;;;;137251;1272;22924;-79
2023/12/04 15:26:34;;;;;;;;;;;;;;;;;;137622;1272;22367;-80
2023/12/04 15:29:35;;;;;;;;;;;;;;;;;;137664;1272;22330;-80
2023/12/04 15:32:36;;;;;;;;;;;;;;;;;;137598;1272;22356;-81
2023/12/04 15:35:39;;;;;;;;;;;;;;;;;;137143;1272;22564;-79
2023/12/04 15:38:40;;;;;;;;;;;;;;;;;;136952;1272;23416;-79
2023/12/04 15:41:41;;;;;;;;;;;;;;;;;;137639;1272;22396;-79
2023/12/04 15:44:42;;;;;;;;;;;;;;;;;;137636;1272;22279;-79
2023/12/04 15:47:43;;;;;;;;;;;;;;;;;;137642;1272;22444;-79
2023/12/04 15:50:44;;;;;;;;;;;;;;;;;;137609;1272;22334;-79
2023/12/04 15:53:45;;;;;;;;;;;;;;;;;;137607;1269;22319;-80
2023/12/04 15:56:47;;;;;;;;;;;;;;;;;;137622;1272;22858;-79
2023/12/04 15:59:48;;;;;;;;;;;;;;;;;;137597;1272;22839;-79
2023/12/04 16:02:49;;;;;;;;;;;;;;;;;;137586;1272;22398;-79
2023/12/04 16:05:50;;;;;;;;;;;;;;;;;;137635;1272;22771;-79
2023/12/04 16:08:51;;;;;;;;;;;;;;;;;;136940;1272;22462;-81
2023/12/04 16:11:52;;;;;;;;;;;;;;;;;;137532;1272;22502;-78
2023/12/04 16:14:53;;;;;;;;;;;;;;;;;;137640;1272;22810;-82
2023/12/04 16:17:55;;;;;;;;;;;;;;;;;;137087;1272;22991;-82
2023/12/04 16:20:56;;;;;;;;;;;;;;;;;;137590;1272;22477;-80
2023/12/04 16:23:58;;;;;;;;;;;;;;;;;;137183;1272;22567;-80
2023/12/04 16:26:59;;;;;;;;;;;;;;;;;;137638;1272;22323;-79
2023/12/04 16:30:00;;;;;;;;;;;;;;;;;;137405;1272;22527;-80
2023/12/04 16:33:01;;;;;;;;;;;;;;;;;;137239;1272;22574;-79
2023/12/04 16:36:02;;;;;;;;;;;;;;;;;;137649;1272;22374;-79
2023/12/04 16:39:04;;;;;;;;;;;;;;;;;;137622;1272;22329;-79
2023/12/04 16:42:05;;;;;;;;;;;;;;;;;;137625;1272;22948;-79
2023/12/04 16:45:06;;;;;;;;;;;;;;;;;;137490;1272;176485;-80
2023/12/04 16:48:07;;;;;;;;;;;;;;;;;;137504;1272;22543;-79
2023/12/04 16:51:08;;;;;;;;;;;;;;;;;;137628;1272;22515;-79
2023/12/04 16:54:10;;;;;;;;;;;;;;;;;;136785;1272;22526;-78
2023/12/04 16:57:11;;;;;;;;;;;;;;;;;;136868;1272;22523;-78
2023/12/04 17:00:15;;;;;;;;;;;;;;;;;;137597;1272;22978;-78
2023/12/04 17:03:16;;;;;;;;;;;;;;;;;;137170;1272;23271;-79
2023/12/04 17:06:17;;;;;;;;;;;;;;;;;;137184;1272;22546;-79
2023/12/04 17:09:21;;;;;;;;;;;;;;;;;;137280;1272;22521;-81
2023/12/04 17:12:22;;;;;;;;;;;;;;;;;;137393;1272;22502;-80
2023/12/04 17:15:23;;;;;;;;;;;;;;;;;;137240;1272;22576;-79
2023/12/04 17:18:25;;;;;;;;;;;;;;;;;;137168;1272;22511;-79
2023/12/04 17:21:26;;;;;;;;;;;;;;;;;;137531;1272;22499;-77
2023/12/04 17:24:27;;;;;;;;;;;;;;;;;;136984;1272;22524;-79
2023/12/04 17:27:28;;;;;;;;;;;;;;;;;;136999;1263;22585;-78
2023/12/04 17:30:29;;;;;;;;;;;;;;;;;;137689;1272;22280;-79
2023/12/04 17:33:30;;;;;;;;;;;;;;;;;;137162;1272;22507;-78
2023/12/04 17:36:32;;;;;;;;;;;;;;;;;;137019;1272;22512;-79
2023/12/04 17:39:33;;;;;;;;;;;;;;;;;;137638;1272;22319;-79
2023/12/04 17:42:34;;;;;;;;;;;;;;;;;;137663;1272;22375;-79
2023/12/04 17:45:35;;;;;;;;;;;;;;;;;;136949;1272;22506;-79
2023/12/04 17:48:37;;;;;;;;;;;;;;;;;;137250;1272;25259;-79
2023/12/04 17:51:38;;;;;;;;;;;;;;;;;;137430;1272;22499;-79
2023/12/04 17:54:40;;;;;;;;;;;;;;;;;;137565;1272;22525;-81
2023/12/04 17:57:42;;;;;;;;;;;;;;;;;;137235;1272;22536;-80
2023/12/04 18:00:43;;;;;;;;;;;;;;;;;;137669;1272;22303;-80
2023/12/04 18:03:44;;;;;;;;;;;;;;;;;;137681;1272;22808;-80
2023/12/04 18:06:46;;;;;;;;;;;;;;;;;;137063;1272;25304;-80
2023/12/04 18:09:47;;;;;;;;;;;;;;;;;;137223;1272;22544;-81
2023/12/04 18:12:48;;;;;;;;;;;;;;;;;;136759;1272;22546;-81
2023/12/04 18:15:49;;;;;;;;;;;;;;;;;;137033;1272;22597;-81
2023/12/04 18:18:51;;;;;;;;;;;;;;;;;;137701;1272;22367;-81
2023/12/04 18:21:53;;;;;;;;;;;;;;;;;;136931;1272;22495;-81
2023/12/04 18:24:55;;;;;;;;;;;;;;;;;;136992;1272;22516;-81
2023/12/04 18:27:58;;;;;;;;;;;;;;;;;;137390;1272;22560;-83
2023/12/04 18:30:59;;;;;;;;;;;;;;;;;;137266;1272;22572;-81
2023/12/04 18:34:01;;;;;;;;;;;;;;;;;;137083;1272;22572;-82
2023/12/04 18:37:02;;;;;;;;;;;;;;;;;;137223;1268;22612;-82
2023/12/04 18:40:04;;;;;;;;;;;;;;;;;;137427;1272;22937;-82
2023/12/04 18:43:05;;;;;;;;;;;;;;;;;;136955;1272;22692;-81
2023/12/04 18:46:09;;;;;;;;;;;;;;;;;;136889;1272;23517;-81
2023/12/04 18:49:10;;;;;;;;;;;;;;;;;;137553;1272;22525;-81
2023/12/04 18:52:12;;;;;;;;;;;;;;;;;;136958;1272;22563;-82
2023/12/04 18:55:14;;;;;;;;;;;;;;;;;;136926;1272;22565;-80
2023/12/04 18:58:15;;;;;;;;;;;;;;;;;;137610;1272;22505;-82
2023/12/04 19:01:18;;;;;;;;;;;;;;;;;;137053;1272;22650;-80
2023/12/04 19:04:19;;;;;;;;;;;;;;;;;;136852;1270;22552;-81
2023/12/04 19:07:20;;;;;;;;;;;;;;;;;;137365;1272;24791;-82
2023/12/04 19:10:22;;;;;;;;;;;;;;;;;;137080;1272;22615;-81
2023/12/04 19:13:25;;;;;;;;;;;;;;;;;;137109;1272;22522;-81
2023/12/04 19:16:26;;;;;;;;;;;;;;;;;;136971;1272;22534;-79
2023/12/04 19:19:27;;;;;;;;;;;;;;;;;;137228;1267;22540;-80
2023/12/04 19:22:31;;;;;;;;;;;;;;;;;;136769;1272;22548;-83
2023/12/04 19:25:34;;;;;;;;;;;;;;;;;;136823;1272;22549;-82
2023/12/04 19:28:38;;;;;;;;;;;;;;;;;;137312;1272;22555;-79
2023/12/04 19:31:39;;;;;;;;;;;;;;;;;;136945;1272;22965;-81
2023/12/04 19:34:40;;;;;;;;;;;;;;;;;;136995;1272;22559;-80
2023/12/04 19:37:41;;;;;;;;;;;;;;;;;;137634;1268;22509;-81
2023/12/04 19:40:42;;;;;;;;;;;;;;;;;;136925;1272;22531;-82
2023/12/04 19:43:44;;;;;;;;;;;;;;;;;;136990;1272;22500;-81
2023/12/04 19:46:45;;;;;;;;;;;;;;;;;;137555;1272;22523;-81
2023/12/04 19:49:46;;;;;;;;;;;;;;;;;;137141;1272;22505;-80
2023/12/04 19:52:47;;;;;;;;;;;;;;;;;;136850;1272;22631;-81
2023/12/04 19:55:49;;;;;;;;;;;;;;;;;;137070;1272;22456;-81
2023/12/04 19:58:50;;;;;;;;;;;;;;;;;;137222;1272;22495;-82
2023/12/04 20:01:51;;;;;;;;;;;;;;;;;;136901;1272;22522;-81
2023/12/04 20:04:52;;;;;;;;;;;;;;;;;;137087;1272;25206;-81
2023/12/04 20:07:53;;;;;;;;;;;;;;;;;;137482;1272;22896;-82
2023/12/04 20:10:55;;;;;;;;;;;;;;;;;;136828;1272;22983;-81
2023/12/04 20:13:56;;;;;;;;;;;;;;;;;;137040;1272;22556;-81
2023/12/04 20:16:57;;;;;;;;;;;;;;;;;;137591;1272;22500;-82
2023/12/04 20:19:58;;;;;;;;;;;;;;;;;;136999;1272;22621;-82
2023/12/04 20:22:59;;;;;;;;;;;;;;;;;;136737;1272;22527;-82
2023/12/04 20:26:01;;;;;;;;;;;;;;;;;;137560;1272;22500;-83
2023/12/04 20:29:02;;;;;;;;;;;;;;;;;;137326;1272;22525;-81
2023/12/04 20:32:03;;;;;;;;;;;;;;;;;;137175;1260;22604;-81